sensor_id;sensor_type;location;lat;lon;timestamp;temperature;humidity
10558;DHT22;5327;47.238;-2.304;2022-11-14T00:00:26;47.80;99.90
10558;DHT22;5327;47.238;-2.304;2022-11-14T00:02:52;47.00;99.90
10558;DHT22;5327;47.238;-2.304;2022-11-14T00:05:18;47.60;99.90
10558;DHT22;5327;47.238;-2.304;2022-11-14T00:07:44;47.50;99.90
10558;DHT22;5327;47.238;-2.304;2022-11-14T00:10:10;47.60;99.90
10558;DHT22;5327;47.238;-2.304;2022-11-14T00:12:36;47.70;99.90
10558;DHT22;5327;47.238;-2.304;2022-11-14T00:15:02;47.60;99.90
10558;DHT22;5327;47.238;-2.304;2022-11-14T00:17:28;47.60;99.90
10558;DHT22;5327;47.238;-2.304;2022-11-14T00:19:54;47.80;99.90
10558;DHT22;5327;47.238;-2.304;2022-11-14T00:22:19;47.50;99.90
10558;DHT22;5327;47.238;-2.304;2022-11-14T00:24:45;47.60;99.90
10558;DHT22;5327;47.238;-2.304;2022-11-14T00:27:11;47.30;99.90
10558;DHT22;5327;47.238;-2.304;2022-11-14T00:29:37;47.50;99.90
10558;DHT22;5327;47.238;-2.304;2022-11-14T00:32:03;47.20;99.90
10558;DHT22;5327;47.238;-2.304;2022-11-14T00:34:28;47.10;99.90
10558;DHT22;5327;47.238;-2.304;2022-11-14T00:36:54;47.60;99.90
10558;DHT22;5327;47.238;-2.304;2022-11-14T00:39:20;47.60;99.90
10558;DHT22;5327;47.238;-2.304;2022-11-14T00:41:45;47.10;99.90
10558;DHT22;5327;47.238;-2.304;2022-11-14T00:44:11;47.00;99.90
10558;DHT22;5327;47.238;-2.304;2022-11-14T00:46:37;46.90;99.90
10558;DHT22;5327;47.238;-2.304;2022-11-14T00:49:03;47.30;99.90
10558;DHT22;5327;47.238;-2.304;2022-11-14T00:51:29;47.20;99.90
10558;DHT22;5327;47.238;-2.304;2022-11-14T00:53:55;46.70;99.90
10558;DHT22;5327;47.238;-2.304;2022-11-14T00:56:20;47.10;99.90
10558;DHT22;5327;47.238;-2.304;2022-11-14T00:58:46;46.90;99.90
10558;DHT22;5327;47.238;-2.304;2022-11-14T01:01:11;46.60;99.90
10558;DHT22;5327;47.238;-2.304;2022-11-14T01:03:37;46.50;99.90
10558;DHT22;5327;47.238;-2.304;2022-11-14T01:06:05;46.40;99.90
10558;DHT22;5327;47.238;-2.304;2022-11-14T01:08:31;46.60;99.90
10558;DHT22;5327;47.238;-2.304;2022-11-14T01:10:57;46.50;99.90
10558;DHT22;5327;47.238;-2.304;2022-11-14T01:13:25;46.40;99.90
10558;DHT22;5327;47.238;-2.304;2022-11-14T01:15:50;46.60;99.90
10558;DHT22;5327;47.238;-2.304;2022-11-14T01:18:18;46.30;99.90
10558;DHT22;5327;47.238;-2.304;2022-11-14T01:20:46;46.30;99.90
10558;DHT22;5327;47.238;-2.304;2022-11-14T01:23:14;46.40;99.90
10558;DHT22;5327;47.238;-2.304;2022-11-14T01:25:40;46.40;99.90
10558;DHT22;5327;47.238;-2.304;2022-11-14T01:28:08;46.10;99.90
10558;DHT22;5327;47.238;-2.304;2022-11-14T01:30:34;46.40;99.90
10558;DHT22;5327;47.238;-2.304;2022-11-14T01:33:01;46.00;99.90
10558;DHT22;5327;47.238;-2.304;2022-11-14T01:35:27;46.30;99.90
10558;DHT22;5327;47.238;-2.304;2022-11-14T01:37:52;46.00;99.90
10558;DHT22;5327;47.238;-2.304;2022-11-14T01:40:18;46.20;99.90
10558;DHT22;5327;47.238;-2.304;2022-11-14T01:45:51;46.30;99.90
10558;DHT22;5327;47.238;-2.304;2022-11-14T01:48:32;46.00;99.90
10558;DHT22;5327;47.238;-2.304;2022-11-14T01:51:12;46.20;99.90
10558;DHT22;5327;47.238;-2.304;2022-11-14T01:53:41;46.20;99.90
10558;DHT22;5327;47.238;-2.304;2022-11-14T01:56:10;46.20;99.90
10558;DHT22;5327;47.238;-2.304;2022-11-14T01:58:41;45.80;99.90
10558;DHT22;5327;47.238;-2.304;2022-11-14T02:01:08;45.90;99.90
10558;DHT22;5327;47.238;-2.304;2022-11-14T02:03:37;45.70;99.90
10558;DHT22;5327;47.238;-2.304;2022-11-14T02:06:04;46.10;99.90
10558;DHT22;5327;47.238;-2.304;2022-11-14T02:08:32;46.00;99.90
10558;DHT22;5327;47.238;-2.304;2022-11-14T02:10:58;46.00;99.90
10558;DHT22;5327;47.238;-2.304;2022-11-14T02:13:24;45.80;99.90
10558;DHT22;5327;47.238;-2.304;2022-11-14T02:15:50;45.80;99.90
10558;DHT22;5327;47.238;-2.304;2022-11-14T02:18:16;45.50;99.90
10558;DHT22;5327;47.238;-2.304;2022-11-14T02:20:42;46.00;99.90
10558;DHT22;5327;47.238;-2.304;2022-11-14T02:23:11;45.60;99.90
10558;DHT22;5327;47.238;-2.304;2022-11-14T02:25:38;45.60;99.90
10558;DHT22;5327;47.238;-2.304;2022-11-14T02:28:06;45.70;99.90
10558;DHT22;5327;47.238;-2.304;2022-11-14T02:30:33;46.00;99.90
10558;DHT22;5327;47.238;-2.304;2022-11-14T02:32:59;45.80;99.90
10558;DHT22;5327;47.238;-2.304;2022-11-14T02:35:25;45.80;99.90
10558;DHT22;5327;47.238;-2.304;2022-11-14T02:37:51;46.00;99.90
10558;DHT22;5327;47.238;-2.304;2022-11-14T02:40:16;45.80;99.90
10558;DHT22;5327;47.238;-2.304;2022-11-14T02:42:42;45.90;99.90
10558;DHT22;5327;47.238;-2.304;2022-11-14T02:45:09;45.80;99.90
10558;DHT22;5327;47.238;-2.304;2022-11-14T02:47:35;46.00;99.90
10558;DHT22;5327;47.238;-2.304;2022-11-14T02:50:01;46.20;99.90
10558;DHT22;5327;47.238;-2.304;2022-11-14T02:52:26;46.00;99.90
10558;DHT22;5327;47.238;-2.304;2022-11-14T02:54:52;46.20;99.90
10558;DHT22;5327;47.238;-2.304;2022-11-14T02:57:18;46.00;99.90
10558;DHT22;5327;47.238;-2.304;2022-11-14T02:59:43;46.10;99.90
10558;DHT22;5327;47.238;-2.304;2022-11-14T03:02:09;46.00;99.90
10558;DHT22;5327;47.238;-2.304;2022-11-14T03:04:34;46.30;99.90
10558;DHT22;5327;47.238;-2.304;2022-11-14T03:07:00;46.10;99.90
10558;DHT22;5327;47.238;-2.304;2022-11-14T03:09:26;46.00;99.90
10558;DHT22;5327;47.238;-2.304;2022-11-14T03:11:51;46.10;99.90
10558;DHT22;5327;47.238;-2.304;2022-11-14T03:14:17;46.30;99.90
10558;DHT22;5327;47.238;-2.304;2022-11-14T03:16:43;46.20;99.90
10558;DHT22;5327;47.238;-2.304;2022-11-14T03:19:08;46.60;99.90
10558;DHT22;5327;47.238;-2.304;2022-11-14T03:21:34;46.30;99.90
10558;DHT22;5327;47.238;-2.304;2022-11-14T03:23:59;46.30;99.90
10558;DHT22;5327;47.238;-2.304;2022-11-14T03:26:25;46.40;99.90
10558;DHT22;5327;47.238;-2.304;2022-11-14T03:28:51;46.70;99.90
10558;DHT22;5327;47.238;-2.304;2022-11-14T03:31:16;46.30;99.90
10558;DHT22;5327;47.238;-2.304;2022-11-14T03:33:42;46.40;99.90
10558;DHT22;5327;47.238;-2.304;2022-11-14T03:36:08;46.40;99.90
10558;DHT22;5327;47.238;-2.304;2022-11-14T03:38:33;46.30;99.90
10558;DHT22;5327;47.238;-2.304;2022-11-14T03:40:59;46.70;99.90
10558;DHT22;5327;47.238;-2.304;2022-11-14T03:43:28;46.40;99.90
10558;DHT22;5327;47.238;-2.304;2022-11-14T03:46:00;46.50;99.90
10558;DHT22;5327;47.238;-2.304;2022-11-14T03:48:26;46.60;99.90
10558;DHT22;5327;47.238;-2.304;2022-11-14T03:50:52;46.80;99.90
10558;DHT22;5327;47.238;-2.304;2022-11-14T03:53:18;46.60;99.90
10558;DHT22;5327;47.238;-2.304;2022-11-14T03:55:44;46.90;99.90
10558;DHT22;5327;47.238;-2.304;2022-11-14T03:58:09;46.70;99.90
10558;DHT22;5327;47.238;-2.304;2022-11-14T04:00:35;47.10;99.90
10558;DHT22;5327;47.238;-2.304;2022-11-14T04:03:01;46.80;99.90
10558;DHT22;5327;47.238;-2.304;2022-11-14T04:05:27;46.90;99.90
10558;DHT22;5327;47.238;-2.304;2022-11-14T04:07:53;46.90;99.90
10558;DHT22;5327;47.238;-2.304;2022-11-14T04:10:18;46.90;99.90
10558;DHT22;5327;47.238;-2.304;2022-11-14T04:12:48;47.10;99.90
10558;DHT22;5327;47.238;-2.304;2022-11-14T04:15:15;47.30;99.90
10558;DHT22;5327;47.238;-2.304;2022-11-14T04:17:41;47.30;99.90
10558;DHT22;5327;47.238;-2.304;2022-11-14T04:20:07;47.00;99.90
10558;DHT22;5327;47.238;-2.304;2022-11-14T04:22:33;47.20;99.90
10558;DHT22;5327;47.238;-2.304;2022-11-14T04:24:58;47.20;99.90
10558;DHT22;5327;47.238;-2.304;2022-11-14T04:27:24;47.30;99.90
10558;DHT22;5327;47.238;-2.304;2022-11-14T04:29:49;46.90;99.90
10558;DHT22;5327;47.238;-2.304;2022-11-14T04:32:15;47.50;99.90
10558;DHT22;5327;47.238;-2.304;2022-11-14T04:34:41;47.00;99.90
10558;DHT22;5327;47.238;-2.304;2022-11-14T04:37:06;47.60;99.90
10558;DHT22;5327;47.238;-2.304;2022-11-14T04:39:32;47.50;99.90
10558;DHT22;5327;47.238;-2.304;2022-11-14T04:41:58;47.80;99.90
10558;DHT22;5327;47.238;-2.304;2022-11-14T04:44:23;47.90;99.90
10558;DHT22;5327;47.238;-2.304;2022-11-14T04:46:49;47.70;99.90
10558;DHT22;5327;47.238;-2.304;2022-11-14T04:49:15;48.10;99.90
10558;DHT22;5327;47.238;-2.304;2022-11-14T04:51:40;47.90;99.90
10558;DHT22;5327;47.238;-2.304;2022-11-14T04:54:06;47.80;99.90
10558;DHT22;5327;47.238;-2.304;2022-11-14T04:56:32;48.40;99.90
10558;DHT22;5327;47.238;-2.304;2022-11-14T04:58:58;48.40;99.90
10558;DHT22;5327;47.238;-2.304;2022-11-14T05:01:23;48.40;99.90
10558;DHT22;5327;47.238;-2.304;2022-11-14T05:03:49;48.60;99.90
10558;DHT22;5327;47.238;-2.304;2022-11-14T05:06:15;48.90;99.90
10558;DHT22;5327;47.238;-2.304;2022-11-14T05:08:40;49.10;99.90
10558;DHT22;5327;47.238;-2.304;2022-11-14T05:11:06;49.00;99.90
10558;DHT22;5327;47.238;-2.304;2022-11-14T05:13:31;49.30;99.90
10558;DHT22;5327;47.238;-2.304;2022-11-14T05:15:58;49.50;99.90
10558;DHT22;5327;47.238;-2.304;2022-11-14T05:18:24;49.40;99.90
10558;DHT22;5327;47.238;-2.304;2022-11-14T05:20:50;49.30;99.90
10558;DHT22;5327;47.238;-2.304;2022-11-14T05:23:21;49.60;99.90
10558;DHT22;5327;47.238;-2.304;2022-11-14T05:26:01;49.40;99.90
10558;DHT22;5327;47.238;-2.304;2022-11-14T05:28:27;49.40;99.90
10558;DHT22;5327;47.238;-2.304;2022-11-14T05:30:59;49.60;99.90
10558;DHT22;5327;47.238;-2.304;2022-11-14T05:33:24;49.60;99.90
10558;DHT22;5327;47.238;-2.304;2022-11-14T05:35:50;49.80;99.90
10558;DHT22;5327;47.238;-2.304;2022-11-14T05:38:16;49.50;99.90
10558;DHT22;5327;47.238;-2.304;2022-11-14T05:40:41;49.80;99.90
10558;DHT22;5327;47.238;-2.304;2022-11-14T05:43:07;49.50;99.90
10558;DHT22;5327;47.238;-2.304;2022-11-14T05:45:32;49.50;99.90
10558;DHT22;5327;47.238;-2.304;2022-11-14T05:47:58;49.90;99.90
10558;DHT22;5327;47.238;-2.304;2022-11-14T05:50:24;49.50;99.90
10558;DHT22;5327;47.238;-2.304;2022-11-14T05:52:50;49.60;99.90
10558;DHT22;5327;47.238;-2.304;2022-11-14T05:55:16;50.00;99.90
10558;DHT22;5327;47.238;-2.304;2022-11-14T05:57:41;50.10;99.90
10558;DHT22;5327;47.238;-2.304;2022-11-14T06:00:07;49.70;99.90
10558;DHT22;5327;47.238;-2.304;2022-11-14T06:02:33;50.10;99.90
10558;DHT22;5327;47.238;-2.304;2022-11-14T06:04:59;50.10;99.90
10558;DHT22;5327;47.238;-2.304;2022-11-14T06:07:25;49.80;99.90
10558;DHT22;5327;47.238;-2.304;2022-11-14T06:09:50;50.10;99.90
10558;DHT22;5327;47.238;-2.304;2022-11-14T06:12:16;49.80;99.90
10558;DHT22;5327;47.238;-2.304;2022-11-14T06:14:42;50.00;99.90
10558;DHT22;5327;47.238;-2.304;2022-11-14T06:17:07;49.90;99.90
10558;DHT22;5327;47.238;-2.304;2022-11-14T06:19:33;50.00;99.90
10558;DHT22;5327;47.238;-2.304;2022-11-14T06:21:59;50.10;99.90
10558;DHT22;5327;47.238;-2.304;2022-11-14T06:24:24;50.30;99.90
10558;DHT22;5327;47.238;-2.304;2022-11-14T06:26:50;50.10;99.90
10558;DHT22;5327;47.238;-2.304;2022-11-14T06:29:15;50.30;99.90
10558;DHT22;5327;47.238;-2.304;2022-11-14T06:31:41;50.50;99.90
10558;DHT22;5327;47.238;-2.304;2022-11-14T06:34:07;50.60;99.90
10558;DHT22;5327;47.238;-2.304;2022-11-14T06:36:32;50.60;99.90
10558;DHT22;5327;47.238;-2.304;2022-11-14T06:38:58;50.70;99.90
10558;DHT22;5327;47.238;-2.304;2022-11-14T06:41:24;50.50;99.90
10558;DHT22;5327;47.238;-2.304;2022-11-14T06:43:50;50.40;99.90
10558;DHT22;5327;47.238;-2.304;2022-11-14T06:46:21;50.50;99.90
10558;DHT22;5327;47.238;-2.304;2022-11-14T06:48:49;50.80;99.90
10558;DHT22;5327;47.238;-2.304;2022-11-14T06:51:17;50.80;99.90
10558;DHT22;5327;47.238;-2.304;2022-11-14T06:53:43;50.60;99.90
10558;DHT22;5327;47.238;-2.304;2022-11-14T06:56:14;50.90;99.90
10558;DHT22;5327;47.238;-2.304;2022-11-14T06:58:43;50.70;99.90
10558;DHT22;5327;47.238;-2.304;2022-11-14T07:01:15;50.40;99.90
10558;DHT22;5327;47.238;-2.304;2022-11-14T07:03:41;50.90;99.90
10558;DHT22;5327;47.238;-2.304;2022-11-14T07:06:09;50.50;99.90
10558;DHT22;5327;47.238;-2.304;2022-11-14T07:08:35;50.00;99.90
10558;DHT22;5327;47.238;-2.304;2022-11-14T07:11:06;50.40;99.90
10558;DHT22;5327;47.238;-2.304;2022-11-14T07:13:32;50.50;99.90
10558;DHT22;5327;47.238;-2.304;2022-11-14T07:15:59;50.80;99.90
10558;DHT22;5327;47.238;-2.304;2022-11-14T07:18:25;50.60;99.90
10558;DHT22;5327;47.238;-2.304;2022-11-14T07:21:00;50.50;99.90
10558;DHT22;5327;47.238;-2.304;2022-11-14T07:23:26;50.40;99.90
10558;DHT22;5327;47.238;-2.304;2022-11-14T07:25:52;51.40;99.90
10558;DHT22;5327;47.238;-2.304;2022-11-14T07:28:18;50.60;99.90
10558;DHT22;5327;47.238;-2.304;2022-11-14T07:30:44;50.60;99.90
10558;DHT22;5327;47.238;-2.304;2022-11-14T07:33:09;50.80;99.90
10558;DHT22;5327;47.238;-2.304;2022-11-14T07:35:38;50.40;99.90
10558;DHT22;5327;47.238;-2.304;2022-11-14T07:38:04;50.80;99.90
10558;DHT22;5327;47.238;-2.304;2022-11-14T07:40:29;50.50;99.90
10558;DHT22;5327;47.238;-2.304;2022-11-14T07:42:59;50.50;99.90
10558;DHT22;5327;47.238;-2.304;2022-11-14T07:45:25;50.90;99.90
10558;DHT22;5327;47.238;-2.304;2022-11-14T07:47:59;50.70;99.90
10558;DHT22;5327;47.238;-2.304;2022-11-14T07:50:27;50.90;99.90
10558;DHT22;5327;47.238;-2.304;2022-11-14T07:52:54;51.00;99.90
10558;DHT22;5327;47.238;-2.304;2022-11-14T07:55:20;50.90;99.90
10558;DHT22;5327;47.238;-2.304;2022-11-14T07:57:46;50.70;99.90
10558;DHT22;5327;47.238;-2.304;2022-11-14T08:00:13;50.80;99.90
10558;DHT22;5327;47.238;-2.304;2022-11-14T08:02:39;50.80;99.90
10558;DHT22;5327;47.238;-2.304;2022-11-14T08:05:05;47.70;99.90
10558;DHT22;5327;47.238;-2.304;2022-11-14T08:07:30;50.50;99.90
10558;DHT22;5327;47.238;-2.304;2022-11-14T08:09:56;50.80;99.90
10558;DHT22;5327;47.238;-2.304;2022-11-14T08:12:22;50.80;99.90
10558;DHT22;5327;47.238;-2.304;2022-11-14T08:14:48;50.70;99.90
10558;DHT22;5327;47.238;-2.304;2022-11-14T08:17:13;50.30;99.90
10558;DHT22;5327;47.238;-2.304;2022-11-14T08:19:39;50.00;99.90
10558;DHT22;5327;47.238;-2.304;2022-11-14T08:22:06;50.20;99.90
10558;DHT22;5327;47.238;-2.304;2022-11-14T08:24:32;50.20;99.90
10558;DHT22;5327;47.238;-2.304;2022-11-14T08:26:57;49.90;99.90
10558;DHT22;5327;47.238;-2.304;2022-11-14T08:29:23;49.70;99.90
10558;DHT22;5327;47.238;-2.304;2022-11-14T08:31:49;49.70;99.90
10558;DHT22;5327;47.238;-2.304;2022-11-14T08:34:14;49.50;99.90
10558;DHT22;5327;47.238;-2.304;2022-11-14T08:36:40;49.50;99.90
10558;DHT22;5327;47.238;-2.304;2022-11-14T08:39:06;49.50;99.90
10558;DHT22;5327;47.238;-2.304;2022-11-14T08:41:31;49.70;99.90
10558;DHT22;5327;47.238;-2.304;2022-11-14T08:43:57;49.60;99.90
10558;DHT22;5327;47.238;-2.304;2022-11-14T08:46:23;48.90;99.90
10558;DHT22;5327;47.238;-2.304;2022-11-14T08:48:49;48.80;99.90
10558;DHT22;5327;47.238;-2.304;2022-11-14T08:51:14;48.40;99.90
10558;DHT22;5327;47.238;-2.304;2022-11-14T08:53:40;48.20;99.90
10558;DHT22;5327;47.238;-2.304;2022-11-14T08:56:07;48.00;99.90
10558;DHT22;5327;47.238;-2.304;2022-11-14T08:58:33;47.90;99.90
10558;DHT22;5327;47.238;-2.304;2022-11-14T09:01:04;47.70;99.90
10558;DHT22;5327;47.238;-2.304;2022-11-14T09:03:30;47.80;99.90
10558;DHT22;5327;47.238;-2.304;2022-11-14T09:05:56;47.70;99.90
10558;DHT22;5327;47.238;-2.304;2022-11-14T09:08:22;47.70;99.90
10558;DHT22;5327;47.238;-2.304;2022-11-14T09:10:48;47.60;99.90
10558;DHT22;5327;47.238;-2.304;2022-11-14T09:13:14;47.80;99.90
10558;DHT22;5327;47.238;-2.304;2022-11-14T09:15:40;47.90;99.90
10558;DHT22;5327;47.238;-2.304;2022-11-14T09:18:05;48.00;99.90
10558;DHT22;5327;47.238;-2.304;2022-11-14T09:20:31;47.80;99.90
10558;DHT22;5327;47.238;-2.304;2022-11-14T09:22:58;48.10;99.90
10558;DHT22;5327;47.238;-2.304;2022-11-14T09:25:24;48.10;99.90
10558;DHT22;5327;47.238;-2.304;2022-11-14T09:27:51;47.80;99.90
10558;DHT22;5327;47.238;-2.304;2022-11-14T09:30:17;47.70;99.90
10558;DHT22;5327;47.238;-2.304;2022-11-14T09:32:43;47.40;99.90
10558;DHT22;5327;47.238;-2.304;2022-11-14T09:35:09;47.40;99.90
10558;DHT22;5327;47.238;-2.304;2022-11-14T09:37:37;47.80;99.90
10558;DHT22;5327;47.238;-2.304;2022-11-14T09:40:04;47.60;99.90
10558;DHT22;5327;47.238;-2.304;2022-11-14T09:45:03;47.40;99.90
10558;DHT22;5327;47.238;-2.304;2022-11-14T09:47:52;47.10;99.90
10558;DHT22;5327;47.238;-2.304;2022-11-14T09:50:20;47.30;99.90
10558;DHT22;5327;47.238;-2.304;2022-11-14T09:52:59;46.90;99.90
10558;DHT22;5327;47.238;-2.304;2022-11-14T09:55:28;46.70;99.90
10558;DHT22;5327;47.238;-2.304;2022-11-14T09:57:55;46.60;99.90
10558;DHT22;5327;47.238;-2.304;2022-11-14T10:00:23;46.80;99.90
10558;DHT22;5327;47.238;-2.304;2022-11-14T10:11:08;46.50;99.90
10558;DHT22;5327;47.238;-2.304;2022-11-14T10:27:17;46.30;99.90
10558;DHT22;5327;47.238;-2.304;2022-11-14T10:29:56;46.50;99.90
10558;DHT22;5327;47.238;-2.304;2022-11-14T10:40:41;47.10;99.90
10558;DHT22;5327;47.238;-2.304;2022-11-14T10:43:29;48.60;99.90
10558;DHT22;5327;47.238;-2.304;2022-11-14T10:46:06;54.00;99.90
10558;DHT22;5327;47.238;-2.304;2022-11-14T10:48:58;55.20;99.90
10558;DHT22;5327;47.238;-2.304;2022-11-14T10:51:32;57.20;99.90
10558;DHT22;5327;47.238;-2.304;2022-11-14T10:54:14;53.40;1.00
10558;DHT22;5327;47.238;-2.304;2022-11-14T10:56:51;50.70;99.90
10558;DHT22;5327;47.238;-2.304;2022-11-14T10:59:17;51.50;1.00
10558;DHT22;5327;47.238;-2.304;2022-11-14T11:01:45;50.20;1.00
10558;DHT22;5327;47.238;-2.304;2022-11-14T11:04:32;50.30;1.00
10558;DHT22;5327;47.238;-2.304;2022-11-14T11:09:38;49.80;99.90
10558;DHT22;5327;47.238;-2.304;2022-11-14T11:17:53;47.80;99.90
10558;DHT22;5327;47.238;-2.304;2022-11-14T11:20:32;47.70;99.90
10558;DHT22;5327;47.238;-2.304;2022-11-14T11:25:38;47.70;99.90
10558;DHT22;5327;47.238;-2.304;2022-11-14T11:28:08;47.70;99.90
10558;DHT22;5327;47.238;-2.304;2022-11-14T11:30:36;47.70;99.90
10558;DHT22;5327;47.238;-2.304;2022-11-14T11:33:14;47.70;99.90
10558;DHT22;5327;47.238;-2.304;2022-11-14T11:35:41;47.70;99.90
10558;DHT22;5327;47.238;-2.304;2022-11-14T11:38:07;47.60;99.90
10558;DHT22;5327;47.238;-2.304;2022-11-14T11:40:33;47.40;99.90
